sensor_id;sensor_type;location;lat;lon;timestamp;temperature;humidity
13711;DHT22;6927;51.256;9.410;2023-09-07T00:01:45;15.30;99.90
13711;DHT22;6927;51.256;9.410;2023-09-07T00:04:10;15.20;99.90
13711;DHT22;6927;51.256;9.410;2023-09-07T00:06:40;15.20;99.90
13711;DHT22;6927;51.256;9.410;2023-09-07T00:09:09;15.20;99.90
13711;DHT22;6927;51.256;9.410;2023-09-07T00:11:36;15.20;99.90
13711;DHT22;6927;51.256;9.410;2023-09-07T00:14:02;15.10;99.90
13711;DHT22;6927;51.256;9.410;2023-09-07T00:16:28;15.00;99.90
13711;DHT22;6927;51.256;9.410;2023-09-07T00:18:53;15.00;99.90
13711;DHT22;6927;51.256;9.410;2023-09-07T00:21:19;15.00;99.90
13711;DHT22;6927;51.256;9.410;2023-09-07T00:23:44;15.00;99.90
13711;DHT22;6927;51.256;9.410;2023-09-07T00:26:10;15.00;99.90
13711;DHT22;6927;51.256;9.410;2023-09-07T00:28:38;15.00;99.90
13711;DHT22;6927;51.256;9.410;2023-09-07T00:31:03;15.00;99.90
13711;DHT22;6927;51.256;9.410;2023-09-07T00:33:29;15.00;99.90
13711;DHT22;6927;51.256;9.410;2023-09-07T00:35:54;14.90;99.90
13711;DHT22;6927;51.256;9.410;2023-09-07T00:38:20;14.90;99.90
13711;DHT22;6927;51.256;9.410;2023-09-07T00:40:45;14.90;99.90
13711;DHT22;6927;51.256;9.410;2023-09-07T00:43:11;14.80;99.90
13711;DHT22;6927;51.256;9.410;2023-09-07T00:45:38;14.80;99.90
13711;DHT22;6927;51.256;9.410;2023-09-07T00:48:05;14.80;99.90
13711;DHT22;6927;51.256;9.410;2023-09-07T00:50:30;14.80;99.90
13711;DHT22;6927;51.256;9.410;2023-09-07T00:52:56;14.70;99.90
13711;DHT22;6927;51.256;9.410;2023-09-07T00:55:23;14.70;99.90
13711;DHT22;6927;51.256;9.410;2023-09-07T00:57:49;14.60;99.90
13711;DHT22;6927;51.256;9.410;2023-09-07T01:00:14;14.60;99.90
13711;DHT22;6927;51.256;9.410;2023-09-07T01:02:40;14.60;99.90
13711;DHT22;6927;51.256;9.410;2023-09-07T01:05:07;14.60;99.90
13711;DHT22;6927;51.256;9.410;2023-09-07T01:07:47;14.60;99.90
13711;DHT22;6927;51.256;9.410;2023-09-07T01:10:17;14.60;99.90
13711;DHT22;6927;51.256;9.410;2023-09-07T01:12:44;14.60;99.90
13711;DHT22;6927;51.256;9.410;2023-09-07T01:15:10;14.50;99.90
13711;DHT22;6927;51.256;9.410;2023-09-07T01:17:36;14.50;99.90
13711;DHT22;6927;51.256;9.410;2023-09-07T01:20:06;14.50;99.90
13711;DHT22;6927;51.256;9.410;2023-09-07T01:22:33;14.40;99.90
13711;DHT22;6927;51.256;9.410;2023-09-07T01:25:00;14.40;99.90
13711;DHT22;6927;51.256;9.410;2023-09-07T01:27:27;14.40;99.90
13711;DHT22;6927;51.256;9.410;2023-09-07T01:29:52;14.40;99.90
13711;DHT22;6927;51.256;9.410;2023-09-07T01:32:18;14.40;99.90
13711;DHT22;6927;51.256;9.410;2023-09-07T01:34:43;14.40;99.90
13711;DHT22;6927;51.256;9.410;2023-09-07T01:37:09;14.30;99.90
13711;DHT22;6927;51.256;9.410;2023-09-07T01:39:35;14.30;99.90
13711;DHT22;6927;51.256;9.410;2023-09-07T01:42:00;14.30;99.90
13711;DHT22;6927;51.256;9.410;2023-09-07T01:44:26;14.30;99.90
13711;DHT22;6927;51.256;9.410;2023-09-07T01:46:52;14.20;99.90
13711;DHT22;6927;51.256;9.410;2023-09-07T01:49:18;14.20;99.90
13711;DHT22;6927;51.256;9.410;2023-09-07T01:51:43;14.10;99.90
13711;DHT22;6927;51.256;9.410;2023-09-07T01:54:09;14.10;99.90
13711;DHT22;6927;51.256;9.410;2023-09-07T01:56:35;14.10;99.90
13711;DHT22;6927;51.256;9.410;2023-09-07T01:59:00;14.00;99.90
13711;DHT22;6927;51.256;9.410;2023-09-07T02:01:27;14.00;99.90
13711;DHT22;6927;51.256;9.410;2023-09-07T02:03:55;14.00;99.90
13711;DHT22;6927;51.256;9.410;2023-09-07T02:06:20;13.90;99.90
13711;DHT22;6927;51.256;9.410;2023-09-07T02:08:46;13.90;99.90
13711;DHT22;6927;51.256;9.410;2023-09-07T02:11:12;13.80;99.90
13711;DHT22;6927;51.256;9.410;2023-09-07T02:13:37;13.80;99.90
13711;DHT22;6927;51.256;9.410;2023-09-07T02:16:04;13.80;99.90
13711;DHT22;6927;51.256;9.410;2023-09-07T02:18:31;13.70;99.90
13711;DHT22;6927;51.256;9.410;2023-09-07T02:21:04;13.70;99.90
13711;DHT22;6927;51.256;9.410;2023-09-07T02:23:31;13.70;99.90
13711;DHT22;6927;51.256;9.410;2023-09-07T02:25:57;13.70;99.90
13711;DHT22;6927;51.256;9.410;2023-09-07T02:28:26;13.60;99.90
13711;DHT22;6927;51.256;9.410;2023-09-07T02:30:52;13.60;99.90
13711;DHT22;6927;51.256;9.410;2023-09-07T02:33:18;13.70;99.90
13711;DHT22;6927;51.256;9.410;2023-09-07T02:35:43;13.60;99.90
13711;DHT22;6927;51.256;9.410;2023-09-07T02:38:09;13.60;99.90
13711;DHT22;6927;51.256;9.410;2023-09-07T02:40:44;13.60;99.90
13711;DHT22;6927;51.256;9.410;2023-09-07T02:49:07;13.50;99.90
13711;DHT22;6927;51.256;9.410;2023-09-07T02:51:32;13.50;99.90
13711;DHT22;6927;51.256;9.410;2023-09-07T02:53:58;13.50;99.90
13711;DHT22;6927;51.256;9.410;2023-09-07T02:56:23;13.40;99.90
13711;DHT22;6927;51.256;9.410;2023-09-07T02:58:50;13.40;99.90
13711;DHT22;6927;51.256;9.410;2023-09-07T03:01:15;13.40;99.90
13711;DHT22;6927;51.256;9.410;2023-09-07T03:03:46;13.30;99.90
13711;DHT22;6927;51.256;9.410;2023-09-07T03:06:13;13.20;99.90
13711;DHT22;6927;51.256;9.410;2023-09-07T03:08:39;13.20;99.90
13711;DHT22;6927;51.256;9.410;2023-09-07T03:11:06;13.20;99.90
13711;DHT22;6927;51.256;9.410;2023-09-07T03:13:32;13.20;99.90
13711;DHT22;6927;51.256;9.410;2023-09-07T03:15:58;13.10;99.90
13711;DHT22;6927;51.256;9.410;2023-09-07T03:18:24;13.10;99.90
13711;DHT22;6927;51.256;9.410;2023-09-07T03:20:50;13.10;99.90
13711;DHT22;6927;51.256;9.410;2023-09-07T03:23:16;13.10;99.90
13711;DHT22;6927;51.256;9.410;2023-09-07T03:25:41;13.10;99.90
13711;DHT22;6927;51.256;9.410;2023-09-07T03:28:07;13.10;99.90
13711;DHT22;6927;51.256;9.410;2023-09-07T03:30:33;13.10;99.90
13711;DHT22;6927;51.256;9.410;2023-09-07T03:32:59;13.10;99.90
13711;DHT22;6927;51.256;9.410;2023-09-07T03:35:24;13.10;99.90
13711;DHT22;6927;51.256;9.410;2023-09-07T03:37:50;13.10;99.90
13711;DHT22;6927;51.256;9.410;2023-09-07T03:40:15;13.10;99.90
13711;DHT22;6927;51.256;9.410;2023-09-07T03:42:41;13.00;99.90
13711;DHT22;6927;51.256;9.410;2023-09-07T03:45:09;13.00;99.90
13711;DHT22;6927;51.256;9.410;2023-09-07T03:47:34;13.00;99.90
13711;DHT22;6927;51.256;9.410;2023-09-07T03:50:00;12.90;99.90
13711;DHT22;6927;51.256;9.410;2023-09-07T03:52:26;12.90;99.90
13711;DHT22;6927;51.256;9.410;2023-09-07T03:54:56;12.80;99.90
13711;DHT22;6927;51.256;9.410;2023-09-07T03:57:22;12.80;99.90
13711;DHT22;6927;51.256;9.410;2023-09-07T03:59:48;12.80;99.90
13711;DHT22;6927;51.256;9.410;2023-09-07T04:02:14;12.80;99.90
13711;DHT22;6927;51.256;9.410;2023-09-07T04:04:40;12.80;99.90
13711;DHT22;6927;51.256;9.410;2023-09-07T04:07:06;12.70;99.90
13711;DHT22;6927;51.256;9.410;2023-09-07T04:09:31;12.70;99.90
13711;DHT22;6927;51.256;9.410;2023-09-07T04:11:57;12.70;99.90
13711;DHT22;6927;51.256;9.410;2023-09-07T04:14:22;12.70;99.90
13711;DHT22;6927;51.256;9.410;2023-09-07T04:16:48;12.70;99.90
13711;DHT22;6927;51.256;9.410;2023-09-07T04:19:14;12.60;99.90
13711;DHT22;6927;51.256;9.410;2023-09-07T04:21:39;12.60;99.90
13711;DHT22;6927;51.256;9.410;2023-09-07T04:24:05;12.60;99.90
13711;DHT22;6927;51.256;9.410;2023-09-07T04:26:31;12.60;99.90
13711;DHT22;6927;51.256;9.410;2023-09-07T04:28:56;12.50;99.90
13711;DHT22;6927;51.256;9.410;2023-09-07T04:31:22;12.50;99.90
13711;DHT22;6927;51.256;9.410;2023-09-07T04:33:49;12.50;99.90
13711;DHT22;6927;51.256;9.410;2023-09-07T04:36:15;12.50;99.90
13711;DHT22;6927;51.256;9.410;2023-09-07T04:38:41;12.40;99.90
13711;DHT22;6927;51.256;9.410;2023-09-07T04:41:11;12.40;99.90
13711;DHT22;6927;51.256;9.410;2023-09-07T04:43:37;12.40;99.90
13711;DHT22;6927;51.256;9.410;2023-09-07T04:46:06;12.40;99.90
13711;DHT22;6927;51.256;9.410;2023-09-07T04:48:32;12.40;99.90
13711;DHT22;6927;51.256;9.410;2023-09-07T04:51:05;12.40;99.90
13711;DHT22;6927;51.256;9.410;2023-09-07T04:53:33;12.40;99.90
13711;DHT22;6927;51.256;9.410;2023-09-07T04:56:00;12.40;99.90
13711;DHT22;6927;51.256;9.410;2023-09-07T04:58:26;12.30;99.90
13711;DHT22;6927;51.256;9.410;2023-09-07T05:00:52;12.30;99.90
13711;DHT22;6927;51.256;9.410;2023-09-07T05:03:17;12.40;99.90
13711;DHT22;6927;51.256;9.410;2023-09-07T05:05:43;12.30;99.90
13711;DHT22;6927;51.256;9.410;2023-09-07T05:08:09;12.40;99.90
13711;DHT22;6927;51.256;9.410;2023-09-07T05:10:36;12.40;99.90
13711;DHT22;6927;51.256;9.410;2023-09-07T05:13:01;12.50;99.90
13711;DHT22;6927;51.256;9.410;2023-09-07T05:15:27;12.50;99.90
13711;DHT22;6927;51.256;9.410;2023-09-07T05:17:54;12.50;99.90
13711;DHT22;6927;51.256;9.410;2023-09-07T05:20:20;12.50;99.90
13711;DHT22;6927;51.256;9.410;2023-09-07T05:22:45;12.60;99.90
13711;DHT22;6927;51.256;9.410;2023-09-07T05:25:11;12.60;99.90
13711;DHT22;6927;51.256;9.410;2023-09-07T05:27:37;12.70;99.90
13711;DHT22;6927;51.256;9.410;2023-09-07T05:30:04;12.70;99.90
13711;DHT22;6927;51.256;9.410;2023-09-07T05:32:29;12.70;99.90
13711;DHT22;6927;51.256;9.410;2023-09-07T05:34:55;12.80;99.90
13711;DHT22;6927;51.256;9.410;2023-09-07T05:37:20;12.80;99.90
13711;DHT22;6927;51.256;9.410;2023-09-07T05:39:46;12.90;99.90
13711;DHT22;6927;51.256;9.410;2023-09-07T05:42:12;12.90;99.90
13711;DHT22;6927;51.256;9.410;2023-09-07T05:44:38;13.00;99.90
13711;DHT22;6927;51.256;9.410;2023-09-07T05:47:04;13.10;99.90
13711;DHT22;6927;51.256;9.410;2023-09-07T05:49:30;13.20;99.90
13711;DHT22;6927;51.256;9.410;2023-09-07T05:51:56;13.20;99.90
13711;DHT22;6927;51.256;9.410;2023-09-07T05:54:21;13.30;99.90
13711;DHT22;6927;51.256;9.410;2023-09-07T05:56:47;13.40;99.90
13711;DHT22;6927;51.256;9.410;2023-09-07T05:59:13;13.60;99.90
13711;DHT22;6927;51.256;9.410;2023-09-07T06:01:39;13.90;99.90
13711;DHT22;6927;51.256;9.410;2023-09-07T06:04:05;14.20;99.90
13711;DHT22;6927;51.256;9.410;2023-09-07T06:06:31;14.40;99.90
13711;DHT22;6927;51.256;9.410;2023-09-07T06:08:57;14.70;99.90
13711;DHT22;6927;51.256;9.410;2023-09-07T06:11:24;15.00;99.90
13711;DHT22;6927;51.256;9.410;2023-09-07T06:13:50;15.20;99.90
13711;DHT22;6927;51.256;9.410;2023-09-07T06:16:16;15.50;99.90
13711;DHT22;6927;51.256;9.410;2023-09-07T06:18:41;15.70;99.90
13711;DHT22;6927;51.256;9.410;2023-09-07T06:21:07;16.00;99.90
13711;DHT22;6927;51.256;9.410;2023-09-07T06:23:33;16.40;99.90
13711;DHT22;6927;51.256;9.410;2023-09-07T06:25:59;16.60;99.90
13711;DHT22;6927;51.256;9.410;2023-09-07T06:28:24;17.00;99.90
13711;DHT22;6927;51.256;9.410;2023-09-07T06:30:50;17.40;99.90
13711;DHT22;6927;51.256;9.410;2023-09-07T06:33:15;18.10;99.90
13711;DHT22;6927;51.256;9.410;2023-09-07T06:35:41;18.90;99.90
13711;DHT22;6927;51.256;9.410;2023-09-07T06:38:06;19.50;99.90
13711;DHT22;6927;51.256;9.410;2023-09-07T06:40:32;19.60;99.90
13711;DHT22;6927;51.256;9.410;2023-09-07T06:42:57;19.30;99.90
13711;DHT22;6927;51.256;9.410;2023-09-07T06:45:23;19.30;99.90
13711;DHT22;6927;51.256;9.410;2023-09-07T06:47:49;19.50;99.90
13711;DHT22;6927;51.256;9.410;2023-09-07T06:50:16;19.70;99.90
13711;DHT22;6927;51.256;9.410;2023-09-07T06:52:41;19.70;99.90
13711;DHT22;6927;51.256;9.410;2023-09-07T06:55:07;20.40;99.90
13711;DHT22;6927;51.256;9.410;2023-09-07T06:57:32;21.50;99.90
13711;DHT22;6927;51.256;9.410;2023-09-07T06:59:59;22.60;99.90
13711;DHT22;6927;51.256;9.410;2023-09-07T07:02:25;23.60;99.90
13711;DHT22;6927;51.256;9.410;2023-09-07T07:04:51;23.80;99.90
13711;DHT22;6927;51.256;9.410;2023-09-07T07:07:17;24.00;99.90
13711;DHT22;6927;51.256;9.410;2023-09-07T07:09:43;24.00;99.90
13711;DHT22;6927;51.256;9.410;2023-09-07T07:12:09;23.70;99.90
13711;DHT22;6927;51.256;9.410;2023-09-07T07:14:34;23.30;99.90
13711;DHT22;6927;51.256;9.410;2023-09-07T07:17:00;22.90;99.90
13711;DHT22;6927;51.256;9.410;2023-09-07T07:19:27;22.70;99.90
13711;DHT22;6927;51.256;9.410;2023-09-07T07:21:53;22.40;99.90
13711;DHT22;6927;51.256;9.410;2023-09-07T07:24:19;22.30;99.90
13711;DHT22;6927;51.256;9.410;2023-09-07T07:26:45;21.90;99.90
13711;DHT22;6927;51.256;9.410;2023-09-07T07:29:11;21.60;99.90
13711;DHT22;6927;51.256;9.410;2023-09-07T07:31:37;21.50;99.90
13711;DHT22;6927;51.256;9.410;2023-09-07T07:34:03;21.50;99.90
13711;DHT22;6927;51.256;9.410;2023-09-07T07:36:28;21.40;99.90
13711;DHT22;6927;51.256;9.410;2023-09-07T07:38:54;21.30;99.90
13711;DHT22;6927;51.256;9.410;2023-09-07T07:41:20;21.20;99.90
13711;DHT22;6927;51.256;9.410;2023-09-07T07:43:45;21.30;99.90
13711;DHT22;6927;51.256;9.410;2023-09-07T07:46:11;22.10;99.90
13711;DHT22;6927;51.256;9.410;2023-09-07T07:48:37;23.30;99.90
13711;DHT22;6927;51.256;9.410;2023-09-07T07:51:03;24.00;99.90
13711;DHT22;6927;51.256;9.410;2023-09-07T07:53:30;24.70;99.90
13711;DHT22;6927;51.256;9.410;2023-09-07T07:55:56;25.00;99.90
13711;DHT22;6927;51.256;9.410;2023-09-07T07:58:22;25.40;99.90
13711;DHT22;6927;51.256;9.410;2023-09-07T08:00:48;25.40;99.90
13711;DHT22;6927;51.256;9.410;2023-09-07T08:03:14;26.00;99.90
13711;DHT22;6927;51.256;9.410;2023-09-07T08:05:40;26.50;99.90
13711;DHT22;6927;51.256;9.410;2023-09-07T08:08:06;26.40;99.90
13711;DHT22;6927;51.256;9.410;2023-09-07T08:10:35;26.40;99.90
13711;DHT22;6927;51.256;9.410;2023-09-07T08:13:06;26.90;99.90
13711;DHT22;6927;51.256;9.410;2023-09-07T08:15:33;27.60;99.90
13711;DHT22;6927;51.256;9.410;2023-09-07T08:17:59;28.30;99.90
13711;DHT22;6927;51.256;9.410;2023-09-07T08:20:26;28.90;99.90
13711;DHT22;6927;51.256;9.410;2023-09-07T08:22:52;29.40;99.90
13711;DHT22;6927;51.256;9.410;2023-09-07T08:25:18;29.70;99.90
13711;DHT22;6927;51.256;9.410;2023-09-07T08:27:44;29.90;99.90
13711;DHT22;6927;51.256;9.410;2023-09-07T08:30:13;30.30;99.90
13711;DHT22;6927;51.256;9.410;2023-09-07T08:32:39;30.70;99.90
13711;DHT22;6927;51.256;9.410;2023-09-07T08:35:06;31.30;99.90
13711;DHT22;6927;51.256;9.410;2023-09-07T08:37:33;31.70;99.90
13711;DHT22;6927;51.256;9.410;2023-09-07T08:39:59;31.80;99.90
13711;DHT22;6927;51.256;9.410;2023-09-07T08:42:25;31.80;99.90
13711;DHT22;6927;51.256;9.410;2023-09-07T08:44:51;31.90;99.90
13711;DHT22;6927;51.256;9.410;2023-09-07T08:47:18;32.00;99.90
13711;DHT22;6927;51.256;9.410;2023-09-07T08:49:46;31.80;99.90
13711;DHT22;6927;51.256;9.410;2023-09-07T08:52:14;32.00;99.90
13711;DHT22;6927;51.256;9.410;2023-09-07T08:54:42;32.10;99.90
13711;DHT22;6927;51.256;9.410;2023-09-07T08:57:08;32.40;99.90
13711;DHT22;6927;51.256;9.410;2023-09-07T08:59:36;32.70;99.90
13711;DHT22;6927;51.256;9.410;2023-09-07T09:02:01;32.90;99.90
13711;DHT22;6927;51.256;9.410;2023-09-07T09:04:29;32.20;99.90
13711;DHT22;6927;51.256;9.410;2023-09-07T09:06:56;32.30;99.90
13711;DHT22;6927;51.256;9.410;2023-09-07T09:09:25;32.20;99.90
13711;DHT22;6927;51.256;9.410;2023-09-07T09:11:51;32.20;99.90
13711;DHT22;6927;51.256;9.410;2023-09-07T09:14:17;32.20;99.90
13711;DHT22;6927;51.256;9.410;2023-09-07T09:16:48;32.20;99.90
13711;DHT22;6927;51.256;9.410;2023-09-07T09:19:15;31.80;99.90
13711;DHT22;6927;51.256;9.410;2023-09-07T09:21:41;31.90;99.90
13711;DHT22;6927;51.256;9.410;2023-09-07T09:24:10;32.20;99.90
13711;DHT22;6927;51.256;9.410;2023-09-07T09:26:39;32.80;99.90
13711;DHT22;6927;51.256;9.410;2023-09-07T09:29:04;33.00;99.90
13711;DHT22;6927;51.256;9.410;2023-09-07T09:31:30;33.10;99.90
13711;DHT22;6927;51.256;9.410;2023-09-07T09:33:56;33.50;99.90
13711;DHT22;6927;51.256;9.410;2023-09-07T09:36:22;34.00;99.90
13711;DHT22;6927;51.256;9.410;2023-09-07T09:38:49;34.10;99.90
13711;DHT22;6927;51.256;9.410;2023-09-07T09:41:16;33.70;99.90
13711;DHT22;6927;51.256;9.410;2023-09-07T09:43:42;33.70;99.90
13711;DHT22;6927;51.256;9.410;2023-09-07T09:46:10;33.90;99.90
13711;DHT22;6927;51.256;9.410;2023-09-07T09:48:37;35.10;99.90
13711;DHT22;6927;51.256;9.410;2023-09-07T09:51:04;35.00;99.90
13711;DHT22;6927;51.256;9.410;2023-09-07T09:53:30;34.00;99.90
13711;DHT22;6927;51.256;9.410;2023-09-07T09:55:56;33.90;99.90
13711;DHT22;6927;51.256;9.410;2023-09-07T09:58:22;32.80;99.90
13711;DHT22;6927;51.256;9.410;2023-09-07T10:00:54;31.90;99.90
13711;DHT22;6927;51.256;9.410;2023-09-07T10:03:33;31.30;99.90
13711;DHT22;6927;51.256;9.410;2023-09-07T10:06:11;31.20;99.90
13711;DHT22;6927;51.256;9.410;2023-09-07T10:08:39;30.60;99.90
13711;DHT22;6927;51.256;9.410;2023-09-07T10:11:08;29.60;99.90
13711;DHT22;6927;51.256;9.410;2023-09-07T10:13:37;29.50;99.90
13711;DHT22;6927;51.256;9.410;2023-09-07T10:16:03;29.10;99.90
13711;DHT22;6927;51.256;9.410;2023-09-07T10:18:37;29.00;99.90
13711;DHT22;6927;51.256;9.410;2023-09-07T10:21:03;29.10;99.90
13711;DHT22;6927;51.256;9.410;2023-09-07T10:23:41;28.90;99.90
13711;DHT22;6927;51.256;9.410;2023-09-07T10:28:37;28.40;99.90
13711;DHT22;6927;51.256;9.410;2023-09-07T10:31:05;28.40;99.90
13711;DHT22;6927;51.256;9.410;2023-09-07T10:33:32;28.80;99.90
13711;DHT22;6927;51.256;9.410;2023-09-07T10:35:58;29.40;99.90
13711;DHT22;6927;51.256;9.410;2023-09-07T10:38:25;29.50;99.90
13711;DHT22;6927;51.256;9.410;2023-09-07T10:40:58;29.70;99.90
13711;DHT22;6927;51.256;9.410;2023-09-07T10:43:32;29.90;99.90
13711;DHT22;6927;51.256;9.410;2023-09-07T10:45:59;29.40;99.90
13711;DHT22;6927;51.256;9.410;2023-09-07T10:48:28;29.00;99.90
13711;DHT22;6927;51.256;9.410;2023-09-07T10:50:54;28.40;99.90
13711;DHT22;6927;51.256;9.410;2023-09-07T10:53:31;28.00;99.90
13711;DHT22;6927;51.256;9.410;2023-09-07T10:56:03;27.90;99.90
13711;DHT22;6927;51.256;9.410;2023-09-07T10:58:33;27.70;99.90
13711;DHT22;6927;51.256;9.410;2023-09-07T11:01:00;27.80;99.90
13711;DHT22;6927;51.256;9.410;2023-09-07T11:03:27;27.90;99.90
13711;DHT22;6927;51.256;9.410;2023-09-07T11:05:59;27.80;99.90
13711;DHT22;6927;51.256;9.410;2023-09-07T11:08:25;27.80;99.90
13711;DHT22;6927;51.256;9.410;2023-09-07T11:10:51;28.00;99.90
13711;DHT22;6927;51.256;9.410;2023-09-07T11:13:17;28.10;99.90
13711;DHT22;6927;51.256;9.410;2023-09-07T11:15:43;28.40;99.90
13711;DHT22;6927;51.256;9.410;2023-09-07T11:18:09;28.90;99.90
13711;DHT22;6927;51.256;9.410;2023-09-07T11:20:35;29.20;99.90
13711;DHT22;6927;51.256;9.410;2023-09-07T11:23:02;29.80;99.90
13711;DHT22;6927;51.256;9.410;2023-09-07T11:25:36;30.70;99.90
13711;DHT22;6927;51.256;9.410;2023-09-07T11:28:04;31.00;99.90
13711;DHT22;6927;51.256;9.410;2023-09-07T11:30:30;30.60;99.90
13711;DHT22;6927;51.256;9.410;2023-09-07T11:33:02;30.60;99.90
13711;DHT22;6927;51.256;9.410;2023-09-07T11:35:28;30.40;99.90
13711;DHT22;6927;51.256;9.410;2023-09-07T11:37:54;29.90;99.90
13711;DHT22;6927;51.256;9.410;2023-09-07T11:40:19;29.80;99.90
13711;DHT22;6927;51.256;9.410;2023-09-07T11:42:45;30.10;99.90
13711;DHT22;6927;51.256;9.410;2023-09-07T11:45:10;30.40;99.90
13711;DHT22;6927;51.256;9.410;2023-09-07T11:47:38;31.00;99.90
13711;DHT22;6927;51.256;9.410;2023-09-07T11:50:05;31.70;99.90
13711;DHT22;6927;51.256;9.410;2023-09-07T11:52:32;31.70;99.90
13711;DHT22;6927;51.256;9.410;2023-09-07T11:54:58;31.30;99.90
13711;DHT22;6927;51.256;9.410;2023-09-07T11:57:23;31.20;99.90
13711;DHT22;6927;51.256;9.410;2023-09-07T11:59:49;31.10;99.90
13711;DHT22;6927;51.256;9.410;2023-09-07T12:02:14;31.00;99.90
13711;DHT22;6927;51.256;9.410;2023-09-07T12:04:41;31.30;99.90
13711;DHT22;6927;51.256;9.410;2023-09-07T12:07:07;32.10;99.90
13711;DHT22;6927;51.256;9.410;2023-09-07T12:09:32;33.20;99.90
13711;DHT22;6927;51.256;9.410;2023-09-07T12:11:58;33.40;99.90
13711;DHT22;6927;51.256;9.410;2023-09-07T12:14:24;33.20;99.90
13711;DHT22;6927;51.256;9.410;2023-09-07T12:16:49;33.30;99.90
13711;DHT22;6927;51.256;9.410;2023-09-07T12:19:15;33.30;99.90
13711;DHT22;6927;51.256;9.410;2023-09-07T12:21:40;33.00;99.90
13711;DHT22;6927;51.256;9.410;2023-09-07T12:24:07;32.80;99.90
13711;DHT22;6927;51.256;9.410;2023-09-07T12:26:33;32.40;99.90
13711;DHT22;6927;51.256;9.410;2023-09-07T12:28:59;31.90;99.90
13711;DHT22;6927;51.256;9.410;2023-09-07T12:31:25;31.30;99.90
13711;DHT22;6927;51.256;9.410;2023-09-07T12:33:50;30.80;99.90
13711;DHT22;6927;51.256;9.410;2023-09-07T12:36:18;30.30;99.90
13711;DHT22;6927;51.256;9.410;2023-09-07T12:38:43;29.90;99.90
13711;DHT22;6927;51.256;9.410;2023-09-07T12:41:09;29.70;99.90
13711;DHT22;6927;51.256;9.410;2023-09-07T12:43:36;29.50;99.90
13711;DHT22;6927;51.256;9.410;2023-09-07T12:46:01;29.30;99.90
13711;DHT22;6927;51.256;9.410;2023-09-07T12:48:27;29.40;99.90
13711;DHT22;6927;51.256;9.410;2023-09-07T12:50:53;29.20;99.90
13711;DHT22;6927;51.256;9.410;2023-09-07T12:53:19;29.00;99.90
13711;DHT22;6927;51.256;9.410;2023-09-07T12:55:45;28.90;99.90
13711;DHT22;6927;51.256;9.410;2023-09-07T12:58:10;28.70;99.90
13711;DHT22;6927;51.256;9.410;2023-09-07T13:00:36;28.80;99.90
13711;DHT22;6927;51.256;9.410;2023-09-07T13:03:01;28.80;99.90
13711;DHT22;6927;51.256;9.410;2023-09-07T13:05:27;28.90;99.90
13711;DHT22;6927;51.256;9.410;2023-09-07T13:07:53;28.90;99.90
13711;DHT22;6927;51.256;9.410;2023-09-07T13:10:19;29.20;99.90
13711;DHT22;6927;51.256;9.410;2023-09-07T13:12:45;29.50;99.90
13711;DHT22;6927;51.256;9.410;2023-09-07T13:15:10;29.80;99.90
13711;DHT22;6927;51.256;9.410;2023-09-07T13:17:36;29.90;99.90
13711;DHT22;6927;51.256;9.410;2023-09-07T13:20:02;30.10;99.90
13711;DHT22;6927;51.256;9.410;2023-09-07T13:22:28;29.80;99.90
13711;DHT22;6927;51.256;9.410;2023-09-07T13:24:53;29.40;99.90
13711;DHT22;6927;51.256;9.410;2023-09-07T13:27:19;29.50;99.90
13711;DHT22;6927;51.256;9.410;2023-09-07T13:29:44;29.90;99.90
13711;DHT22;6927;51.256;9.410;2023-09-07T13:32:10;30.40;99.90
13711;DHT22;6927;51.256;9.410;2023-09-07T13:34:35;30.60;99.90
13711;DHT22;6927;51.256;9.410;2023-09-07T13:37:01;30.70;99.90
13711;DHT22;6927;51.256;9.410;2023-09-07T13:39:26;30.80;99.90
13711;DHT22;6927;51.256;9.410;2023-09-07T13:41:52;31.00;99.90
13711;DHT22;6927;51.256;9.410;2023-09-07T13:44:18;31.50;99.90
13711;DHT22;6927;51.256;9.410;2023-09-07T13:46:44;32.00;99.90
13711;DHT22;6927;51.256;9.410;2023-09-07T13:49:10;32.40;99.90
13711;DHT22;6927;51.256;9.410;2023-09-07T13:51:36;32.80;99.90
13711;DHT22;6927;51.256;9.410;2023-09-07T13:54:05;33.30;99.90
13711;DHT22;6927;51.256;9.410;2023-09-07T13:56:32;32.20;99.90
13711;DHT22;6927;51.256;9.410;2023-09-07T13:58:58;31.80;99.90
13711;DHT22;6927;51.256;9.410;2023-09-07T14:01:24;31.50;99.90
13711;DHT22;6927;51.256;9.410;2023-09-07T14:03:50;31.10;99.90
13711;DHT22;6927;51.256;9.410;2023-09-07T14:06:16;30.60;99.90
13711;DHT22;6927;51.256;9.410;2023-09-07T14:08:43;30.40;99.90
13711;DHT22;6927;51.256;9.410;2023-09-07T14:11:09;30.50;99.90
13711;DHT22;6927;51.256;9.410;2023-09-07T14:13:35;30.70;99.90
13711;DHT22;6927;51.256;9.410;2023-09-07T14:16:00;30.50;99.90
13711;DHT22;6927;51.256;9.410;2023-09-07T14:18:26;30.30;99.90
13711;DHT22;6927;51.256;9.410;2023-09-07T14:20:52;30.40;99.90
13711;DHT22;6927;51.256;9.410;2023-09-07T14:23:17;30.20;99.90
13711;DHT22;6927;51.256;9.410;2023-09-07T14:25:46;30.20;99.90
13711;DHT22;6927;51.256;9.410;2023-09-07T14:28:13;30.30;99.90
13711;DHT22;6927;51.256;9.410;2023-09-07T14:30:39;30.40;99.90
13711;DHT22;6927;51.256;9.410;2023-09-07T14:33:04;30.50;99.90
13711;DHT22;6927;51.256;9.410;2023-09-07T14:35:30;31.30;99.90
13711;DHT22;6927;51.256;9.410;2023-09-07T14:37:56;32.00;99.90
13711;DHT22;6927;51.256;9.410;2023-09-07T14:40:22;32.60;99.90
13711;DHT22;6927;51.256;9.410;2023-09-07T14:42:49;32.70;99.90
13711;DHT22;6927;51.256;9.410;2023-09-07T14:45:16;33.20;99.90
13711;DHT22;6927;51.256;9.410;2023-09-07T14:47:41;33.60;99.90
13711;DHT22;6927;51.256;9.410;2023-09-07T14:50:08;33.70;99.90
13711;DHT22;6927;51.256;9.410;2023-09-07T14:52:34;33.80;99.90
13711;DHT22;6927;51.256;9.410;2023-09-07T14:55:06;33.50;99.90
13711;DHT22;6927;51.256;9.410;2023-09-07T14:57:32;33.10;99.90
13711;DHT22;6927;51.256;9.410;2023-09-07T14:59:59;33.40;99.90
13711;DHT22;6927;51.256;9.410;2023-09-07T15:02:25;33.50;99.90
13711;DHT22;6927;51.256;9.410;2023-09-07T15:04:50;33.70;99.90
13711;DHT22;6927;51.256;9.410;2023-09-07T15:07:16;34.00;99.90
13711;DHT22;6927;51.256;9.410;2023-09-07T15:09:42;33.60;99.90
13711;DHT22;6927;51.256;9.410;2023-09-07T15:12:07;33.40;99.90
13711;DHT22;6927;51.256;9.410;2023-09-07T15:14:33;33.20;99.90
13711;DHT22;6927;51.256;9.410;2023-09-07T15:16:58;33.30;99.90
13711;DHT22;6927;51.256;9.410;2023-09-07T15:19:24;33.50;99.90
13711;DHT22;6927;51.256;9.410;2023-09-07T15:21:50;33.90;99.90
13711;DHT22;6927;51.256;9.410;2023-09-07T15:24:17;34.20;99.90
13711;DHT22;6927;51.256;9.410;2023-09-07T15:26:44;33.90;99.90
13711;DHT22;6927;51.256;9.410;2023-09-07T15:29:11;33.70;99.90
13711;DHT22;6927;51.256;9.410;2023-09-07T15:31:37;33.50;99.90
13711;DHT22;6927;51.256;9.410;2023-09-07T15:34:03;33.30;99.90
13711;DHT22;6927;51.256;9.410;2023-09-07T15:36:29;32.80;99.90
13711;DHT22;6927;51.256;9.410;2023-09-07T15:38:55;32.80;99.90
13711;DHT22;6927;51.256;9.410;2023-09-07T15:41:20;33.00;99.90
13711;DHT22;6927;51.256;9.410;2023-09-07T15:43:46;33.10;99.90
13711;DHT22;6927;51.256;9.410;2023-09-07T15:46:11;33.20;99.90
13711;DHT22;6927;51.256;9.410;2023-09-07T15:48:37;33.70;99.90